Time;durP1;ratioP1;P1;durP2;ratioP2;P2;SDS_P1;SDS_P2;PMS_P1;PMS_P2;Temp;Humidity;BMP_temperature;BMP_pressure;BME280_temperature;BME280_humidity;BME280_pressure;Samples;Min_cycle;Max_cycle;Signal;HPM_P1;HPM_P2
2022/04/01 00:00:06;;;;;;;406.92;272.95;;;;;;;-144.77;100.00;59014.09;344242;28;1232;-91
2022/04/01 00:00:17;;;;;;;407.67;268.63;;;;;;;-144.77;100.00;59014.09;343017;28;1289;-90
2022/04/01 00:00:27;;;;;;;404.73;267.50;;;;;;;-144.77;100.00;59014.09;341834;29;1329;-90
2022/04/01 00:00:39;;;;;;;404.13;269.20;;;;;;;-144.77;100.00;59014.09;340118;29;1318;-90
2022/04/01 00:00:49;;;;;;;404.38;269.88;;;;;;;-144.77;100.00;59014.09;343240;28;1486;-90
2022/04/01 00:01:00;;;;;;;405.42;268.42;;;;;;;-144.77;100.00;59014.09;341360;29;1206;-90
2022/04/01 00:01:10;;;;;;;406.77;271.73;;;;;;;-144.77;100.00;59014.09;341523;28;1288;-90
2022/04/01 00:01:21;;;;;;;410.47;272.90;;;;;;;-144.77;100.00;59014.09;344302;28;1400;-90
2022/04/01 00:01:31;;;;;;;409.23;271.95;;;;;;;-144.77;100.00;59014.09;341376;29;1239;-90
2022/04/01 00:01:41;;;;;;;407.93;272.73;;;;;;;-144.77;100.00;59014.09;341560;29;1230;-90
2022/04/01 00:01:52;;;;;;;405.45;272.45;;;;;;;-144.77;100.00;59014.09;343588;28;1218;-90
2022/04/01 00:02:03;;;;;;;405.60;277.60;;;;;;;-144.77;100.00;59014.09;343574;28;1232;-90
2022/04/01 00:02:13;;;;;;;407.25;274.73;;;;;;;-144.77;100.00;59014.09;346404;28;1234;-90
2022/04/01 00:02:24;;;;;;;406.85;271.33;;;;;;;-144.77;100.00;59014.09;342830;28;1249;-90
2022/04/01 00:02:35;;;;;;;408.70;265.33;;;;;;;-144.77;100.00;59014.09;343033;28;1184;-90
2022/04/01 00:02:45;;;;;;;408.60;267.30;;;;;;;-144.77;100.00;59014.09;342214;28;1687;-90
2022/04/01 00:02:56;;;;;;;408.17;270.60;;;;;;;-144.77;100.00;59014.09;341580;29;1276;-90
2022/04/01 00:03:06;;;;;;;410.37;277.13;;;;;;;-144.77;100.00;59014.09;343450;28;1275;-91
2022/04/01 00:03:17;;;;;;;412.67;276.73;;;;;;;-144.77;100.00;59014.09;338862;29;1439;-90
2022/04/01 00:03:27;;;;;;;415.63;275.60;;;;;;;-144.77;100.00;59014.09;341509;29;1297;-91
2022/04/01 00:03:38;;;;;;;416.73;273.87;;;;;;;-144.77;100.00;59014.09;342824;28;1320;-90
2022/04/01 00:03:48;;;;;;;411.98;271.95;;;;;;;-144.77;100.00;59014.09;342908;28;1163;-90
2022/04/01 00:03:59;;;;;;;411.33;276.83;;;;;;;-144.77;100.00;59014.09;343242;28;1384;-90
2022/04/01 00:04:09;;;;;;;405.73;272.75;;;;;;;-144.77;100.00;59014.09;342824;28;1410;-90
2022/04/01 00:04:20;;;;;;;406.53;269.30;;;;;;;-144.77;100.00;59014.09;342794;28;1232;-91
2022/04/01 00:04:30;;;;;;;406.15;262.98;;;;;;;-144.77;100.00;59014.09;343637;28;1229;-91
2022/04/01 00:04:40;;;;;;;411.67;262.50;;;;;;;-144.77;100.00;59014.09;343332;28;1159;-90
2022/04/01 00:04:51;;;;;;;412.15;267.02;;;;;;;-144.77;100.00;59014.09;344869;28;1335;-90
2022/04/01 00:05:02;;;;;;;413.23;270.10;;;;;;;-144.77;100.00;59014.09;342751;28;1156;-90
2022/04/01 00:05:12;;;;;;;411.05;272.52;;;;;;;-144.77;100.00;59014.09;345644;28;1409;-90
2022/04/01 00:05:22;;;;;;;410.63;267.73;;;;;;;-144.77;100.00;59014.09;344676;28;1347;-90
2022/04/01 00:05:36;;;;;;;408.90;266.05;;;;;;;-144.77;100.00;59014.09;342679;28;1472;-90
2022/04/01 00:05:46;;;;;;;409.13;261.52;;;;;;;-144.77;100.00;59014.09;343176;28;1839;-90
2022/04/01 00:05:56;;;;;;;407.13;262.00;;;;;;;-144.77;100.00;59014.09;344272;28;1247;-90
2022/04/01 00:06:07;;;;;;;401.57;262.87;;;;;;;-144.77;100.00;59014.09;345026;28;1543;-90
2022/04/01 00:06:17;;;;;;;401.83;268.07;;;;;;;-144.77;100.00;59014.09;345228;28;1650;-90
2022/04/01 00:06:28;;;;;;;402.85;267.85;;;;;;;-144.77;100.00;59014.09;347235;28;1403;-90
2022/04/01 00:06:38;;;;;;;405.03;269.13;;;;;;;-144.77;100.00;59014.09;342801;28;1315;-90
2022/04/01 00:06:49;;;;;;;403.13;264.60;;;;;;;-144.77;100.00;59014.09;342813;28;1260;-91
2022/04/01 00:06:59;;;;;;;408.77;268.37;;;;;;;-144.77;100.00;59014.09;344365;28;958;-90
2022/04/01 00:07:10;;;;;;;408.27;265.15;;;;;;;-144.77;100.00;59014.09;345505;28;1102;-90
2022/04/01 00:07:20;;;;;;;408.85;263.55;;;;;;;-144.77;100.00;59014.09;346235;28;1229;-90
2022/04/01 00:07:31;;;;;;;407.67;262.40;;;;;;;-144.77;100.00;59014.09;342983;28;837;-90
2022/04/01 00:07:41;;;;;;;410.77;258.58;;;;;;;-144.77;100.00;59014.09;344221;28;1331;-90
2022/04/01 00:07:52;;;;;;;410.87;262.50;;;;;;;-144.77;100.00;59014.09;344269;28;1264;-90
2022/04/01 00:08:02;;;;;;;405.20;260.33;;;;;;;-144.77;100.00;59014.09;344862;28;1291;-90
2022/04/01 00:08:13;;;;;;;405.43;261.60;;;;;;;-144.77;100.00;59014.09;344106;28;1282;-90
2022/04/01 00:08:23;;;;;;;401.80;256.88;;;;;;;-144.77;100.00;59014.09;346011;28;1224;-90
2022/04/01 00:08:34;;;;;;;401.47;256.30;;;;;;;-144.77;100.00;59014.09;343313;28;1351;-90
2022/04/01 00:08:44;;;;;;;400.33;253.68;;;;;;;-144.77;100.00;59014.09;343517;28;1210;-89
2022/04/01 00:08:54;;;;;;;406.07;253.83;;;;;;;-144.77;100.00;59014.09;341543;28;1289;-90
2022/04/01 00:09:05;;;;;;;406.20;253.60;;;;;;;-144.77;100.00;59014.09;341919;29;1264;-90
2022/04/01 00:09:15;;;;;;;403.80;253.47;;;;;;;-144.77;100.00;59014.09;342941;28;1218;-90
2022/04/01 00:09:27;;;;;;;400.10;254.75;;;;;;;-144.77;100.00;59014.09;343631;28;1211;-90
2022/04/01 00:09:37;;;;;;;403.75;259.17;;;;;;;-144.77;100.00;59014.09;342066;29;1321;-90
2022/04/01 00:09:48;;;;;;;403.08;260.48;;;;;;;-144.77;100.00;59014.09;342297;28;1218;-90
2022/04/01 00:09:58;;;;;;;406.20;260.50;;;;;;;-144.77;100.00;59014.09;344901;28;1312;-89
2022/04/01 00:10:09;;;;;;;403.60;256.90;;;;;;;-144.77;100.00;59014.09;344056;28;1303;-89
2022/04/01 00:10:19;;;;;;;406.17;253.57;;;;;;;-144.77;100.00;59014.09;341764;29;1270;-90
2022/04/01 00:10:30;;;;;;;402.73;248.32;;;;;;;-144.77;100.00;59014.09;343290;28;1446;-90
2022/04/01 00:10:40;;;;;;;405.13;248.67;;;;;;;-144.77;100.00;59014.09;344441;28;1295;-90
2022/04/01 00:10:51;;;;;;;401.77;246.67;;;;;;;-144.77;100.00;59014.09;345704;28;1549;-90
2022/04/01 00:11:01;;;;;;;402.17;244.10;;;;;;;-144.77;100.00;59014.09;345535;28;1322;-90
2022/04/01 00:11:12;;;;;;;408.23;251.27;;;;;;;-144.77;100.00;59014.09;346281;28;1329;-90
2022/04/01 00:11:22;;;;;;;409.13;249.65;;;;;;;-144.77;100.00;59014.09;344088;28;1345;-89
2022/04/01 00:11:32;;;;;;;411.97;249.23;;;;;;;-144.77;100.00;59014.09;342997;28;766;-90
2022/04/01 00:11:43;;;;;;;405.03;240.67;;;;;;;-144.77;100.00;59014.09;343379;28;1310;-90
2022/04/01 00:11:53;;;;;;;407.27;250.98;;;;;;;-144.77;100.00;59014.09;342890;28;1240;-90
2022/04/01 00:12:05;;;;;;;405.63;256.90;;;;;;;-144.77;100.00;59014.09;342872;28;858;-90
2022/04/01 00:12:16;;;;;;;408.42;261.38;;;;;;;-144.77;100.00;59014.09;344804;28;1397;-90
2022/04/01 00:12:26;;;;;;;407.35;253.23;;;;;;;-144.77;100.00;59014.09;342175;29;1205;-90
2022/04/01 00:12:46;;;;;;;406.20;249.73;;;;;;;-144.77;100.00;59014.09;344756;28;1272;-90
2022/04/01 00:12:56;;;;;;;402.73;249.98;;;;;;;-144.77;100.00;59014.09;342979;28;882;-90
2022/04/01 00:13:07;;;;;;;403.77;258.10;;;;;;;-144.77;100.00;59014.09;344745;28;1442;-90
2022/04/01 00:13:17;;;;;;;409.50;259.87;;;;;;;-144.77;100.00;59014.09;344190;28;1224;-90
2022/04/01 00:13:28;;;;;;;411.02;263.48;;;;;;;-144.77;100.00;59014.09;344527;28;1281;-90
2022/04/01 00:13:38;;;;;;;410.90;258.50;;;;;;;-144.77;100.00;59014.09;342826;28;1215;-90
2022/04/01 00:13:48;;;;;;;407.08;256.20;;;;;;;-144.77;100.00;59014.09;344868;28;1419;-90
2022/04/01 00:13:59;;;;;;;404.67;246.37;;;;;;;-144.77;100.00;59014.09;345613;28;1320;-90
2022/04/01 00:14:09;;;;;;;400.67;242.90;;;;;;;-144.77;100.00;59014.09;342721;28;1288;-90
2022/04/01 00:14:20;;;;;;;401.77;243.27;;;;;;;-144.77;100.00;59014.09;343322;28;1266;-90
2022/04/01 00:14:30;;;;;;;402.85;246.75;;;;;;;-144.77;100.00;59014.09;341368;29;1241;-90
2022/04/01 00:14:41;;;;;;;404.60;248.40;;;;;;;-144.77;100.00;59014.09;341437;29;1300;-90
2022/04/01 00:14:51;;;;;;;403.02;247.23;;;;;;;-144.77;100.00;59014.09;345100;28;1233;-90
2022/04/01 00:15:02;;;;;;;404.83;248.00;;;;;;;-144.77;100.00;59014.09;343589;28;1190;-90
2022/04/01 00:15:13;;;;;;;406.30;246.55;;;;;;;-144.77;100.00;59014.09;343435;28;1241;-90
2022/04/01 00:15:23;;;;;;;407.58;245.77;;;;;;;-144.77;100.00;59014.09;343453;28;1272;-90
2022/04/01 00:15:34;;;;;;;400.13;244.00;;;;;;;-144.77;100.00;59014.09;344416;28;1244;-90
2022/04/01 00:15:45;;;;;;;399.13;246.23;;;;;;;-144.77;100.00;59014.09;341078;29;1510;-90
2022/04/01 00:15:56;;;;;;;394.15;242.73;;;;;;;-144.77;100.00;59014.09;346871;28;1341;-90
2022/04/01 00:16:06;;;;;;;396.83;243.82;;;;;;;-144.77;100.00;59014.09;344768;28;1302;-90
2022/04/01 00:16:17;;;;;;;400.88;245.55;;;;;;;-144.77;100.00;59014.09;344149;28;1358;-90
2022/04/01 00:16:27;;;;;;;405.33;247.53;;;;;;;-144.77;100.00;59014.09;342736;28;1201;-90
2022/04/01 00:16:38;;;;;;;405.45;250.50;;;;;;;-144.77;100.00;59014.09;344726;28;1640;-90
2022/04/01 00:16:48;;;;;;;405.17;251.70;;;;;;;-144.77;100.00;59014.09;344185;28;1223;-89
2022/04/01 00:16:59;;;;;;;404.90;249.93;;;;;;;-144.77;100.00;59014.09;344505;28;1276;-90
2022/04/01 00:17:10;;;;;;;403.33;240.32;;;;;;;-144.77;100.00;59014.09;344459;28;1357;-91
2022/04/01 00:17:20;;;;;;;400.07;236.30;;;;;;;-144.77;100.00;59014.09;342931;28;1258;-90
2022/04/01 00:17:30;;;;;;;404.08;241.98;;;;;;;-144.77;100.00;59014.09;342726;28;1344;-90
2022/04/01 00:17:42;;;;;;;403.10;250.10;;;;;;;-144.77;100.00;59014.09;343331;28;1209;-90
2022/04/01 00:17:52;;;;;;;407.48;251.70;;;;;;;-144.77;100.00;59014.09;344293;28;1288;-90
2022/04/01 00:18:03;;;;;;;404.73;248.57;;;;;;;-144.77;100.00;59014.09;340318;29;1236;-90
2022/04/01 00:18:13;;;;;;;408.03;252.53;;;;;;;-144.77;100.00;59014.09;344622;28;983;-90
2022/04/01 00:18:23;;;;;;;402.80;244.53;;;;;;;-144.77;100.00;59014.09;344353;28;1212;-90
2022/04/01 00:18:34;;;;;;;401.17;243.43;;;;;;;-144.77;100.00;59014.09;342811;28;1198;-90
2022/04/01 00:18:44;;;;;;;401.27;241.50;;;;;;;-144.77;100.00;59014.09;343907;28;1355;-90
2022/04/01 00:18:55;;;;;;;404.80;250.07;;;;;;;-144.77;100.00;59014.09;343352;28;1087;-89
2022/04/01 00:19:05;;;;;;;404.45;251.60;;;;;;;-144.77;100.00;59014.09;344265;28;1346;-90
2022/04/01 00:19:16;;;;;;;400.02;248.63;;;;;;;-144.77;100.00;59014.09;342037;28;1230;-90
2022/04/01 00:19:27;;;;;;;398.43;242.07;;;;;;;-144.77;100.00;59014.09;344205;28;1308;-90
2022/04/01 00:19:38;;;;;;;398.07;240.37;;;;;;;-144.77;100.00;59014.09;347099;28;1337;-89
2022/04/01 00:19:48;;;;;;;394.65;235.25;;;;;;;-144.77;100.00;59014.09;344124;28;1428;-89
2022/04/01 00:19:59;;;;;;;396.52;235.20;;;;;;;-144.77;100.00;59014.09;344509;28;1196;-89
2022/04/01 00:20:10;;;;;;;400.43;238.90;;;;;;;-144.77;100.00;59014.09;345303;28;1393;-89
2022/04/01 00:20:21;;;;;;;404.95;246.27;;;;;;;-144.77;100.00;59014.09;343171;28;1299;-90
2022/04/01 00:20:31;;;;;;;401.50;242.53;;;;;;;-144.77;100.00;59014.09;345061;28;1377;-89
2022/04/01 00:20:42;;;;;;;398.35;236.55;;;;;;;-144.77;100.00;59014.09;344520;28;1226;-89
2022/04/01 00:20:52;;;;;;;393.83;229.47;;;;;;;-144.77;100.00;59014.09;343702;28;1234;-89
2022/04/01 00:21:03;;;;;;;393.38;232.20;;;;;;;-144.77;100.00;59014.09;345566;28;1355;-90
2022/04/01 00:21:13;;;;;;;395.40;236.37;;;;;;;-144.77;100.00;59014.09;342811;28;1320;-90
2022/04/01 00:21:24;;;;;;;399.20;241.38;;;;;;;-144.77;100.00;59014.09;340267;29;1187;-90
2022/04/01 00:21:35;;;;;;;404.45;248.65;;;;;;;-144.77;100.00;59014.09;344368;28;1288;-90
2022/04/01 00:21:45;;;;;;;407.83;253.47;;;;;;;-144.77;100.00;59014.09;344194;28;1207;-90
2022/04/01 00:21:55;;;;;;;408.35;256.17;;;;;;;-144.77;100.00;59014.09;343580;28;1374;-90
2022/04/01 00:22:06;;;;;;;409.30;256.40;;;;;;;-144.77;100.00;59014.09;343144;28;1367;-90
2022/04/01 00:22:16;;;;;;;406.63;249.77;;;;;;;-144.77;100.00;59014.09;342903;28;1479;-90
2022/04/01 00:22:27;;;;;;;405.80;245.73;;;;;;;-144.77;100.00;59014.09;342736;28;1313;-90
2022/04/01 00:22:37;;;;;;;404.35;241.50;;;;;;;-144.77;100.00;59014.09;343630;28;1593;-90
2022/04/01 00:22:48;;;;;;;404.00;238.87;;;;;;;-144.77;100.00;59014.09;345118;28;1355;-90
2022/04/01 00:22:58;;;;;;;403.67;239.77;;;;;;;-144.77;100.00;59014.09;344279;28;1283;-90
2022/04/01 00:23:09;;;;;;;404.67;242.83;;;;;;;-144.77;100.00;59014.09;344474;28;1348;-90
2022/04/01 00:23:19;;;;;;;407.75;250.60;;;;;;;-144.77;100.00;59014.09;347117;28;1222;-90
2022/04/01 00:23:30;;;;;;;403.60;248.40;;;;;;;-144.77;100.00;59014.09;343089;28;1246;-90
2022/04/01 00:23:40;;;;;;;400.10;248.00;;;;;;;-144.77;100.00;59014.09;345366;28;1200;-90
2022/04/01 00:23:51;;;;;;;397.83;245.98;;;;;;;-144.77;100.00;59014.09;344204;28;895;-89
2022/04/01 00:24:01;;;;;;;400.07;249.50;;;;;;;-144.77;100.00;59014.09;344376;28;1312;-90
2022/04/01 00:24:12;;;;;;;400.05;248.15;;;;;;;-144.77;100.00;59014.09;346086;28;1338;-90
2022/04/01 00:24:22;;;;;;;399.43;248.47;;;;;;;-144.77;100.00;59014.09;341451;29;1258;-90
2022/04/01 00:24:33;;;;;;;398.77;248.13;;;;;;;-144.77;100.00;59014.09;339617;28;1453;-90
2022/04/01 00:24:43;;;;;;;399.40;251.07;;;;;;;-144.77;100.00;59014.09;341381;29;1580;-90
2022/04/01 00:24:54;;;;;;;397.63;246.80;;;;;;;-144.77;100.00;59014.09;340541;29;1397;-89
2022/04/01 00:25:05;;;;;;;397.27;248.60;;;;;;;-144.77;100.00;59014.09;341412;29;1186;-90
2022/04/01 00:25:15;;;;;;;398.92;251.60;;;;;;;-144.77;100.00;59014.09;339961;29;1338;-90
2022/04/01 00:25:26;;;;;;;403.37;258.90;;;;;;;-144.77;100.00;59014.09;342527;28;1276;-90
2022/04/01 00:25:39;;;;;;;403.08;252.57;;;;;;;-144.77;100.00;59014.09;342104;29;1241;-90
2022/04/01 00:25:49;;;;;;;402.42;248.38;;;;;;;-144.77;100.00;59014.09;340075;29;1298;-90
2022/04/01 00:26:00;;;;;;;400.47;244.57;;;;;;;-144.77;100.00;59014.09;342175;29;1467;-90
2022/04/01 00:26:10;;;;;;;397.65;242.15;;;;;;;-144.77;100.00;59014.09;341576;29;1340;-90
2022/04/01 00:26:21;;;;;;;397.90;246.38;;;;;;;-144.77;100.00;59014.09;344119;28;1321;-90
2022/04/01 00:26:31;;;;;;;401.23;246.43;;;;;;;-144.77;100.00;59014.09;342833;28;1421;-90
2022/04/01 00:26:43;;;;;;;403.63;252.20;;;;;;;-144.77;100.00;59014.09;344352;28;1117;-89
2022/04/01 00:26:54;;;;;;;404.23;255.35;;;;;;;-144.77;100.00;59014.09;343589;28;1465;-89
2022/04/01 00:27:04;;;;;;;404.43;254.13;;;;;;;-144.77;100.00;59014.09;341684;29;1173;-90
2022/04/01 00:27:15;;;;;;;404.73;251.55;;;;;;;-144.77;100.00;59014.09;342821;28;1478;-90
2022/04/01 00:27:25;;;;;;;403.23;244.93;;;;;;;-144.77;100.00;59014.09;342355;29;1233;-90
2022/04/01 00:27:36;;;;;;;402.10;240.55;;;;;;;-144.77;100.00;59014.09;340288;29;853;-90
2022/04/01 00:27:46;;;;;;;400.20;240.10;;;;;;;-144.77;100.00;59014.09;341730;29;1265;-90
2022/04/01 00:27:57;;;;;;;400.55;241.25;;;;;;;-144.77;100.00;59014.09;342464;29;1277;-90
2022/04/01 00:28:07;;;;;;;399.90;243.23;;;;;;;-144.77;100.00;59014.09;341550;29;1331;-90
2022/04/01 00:28:18;;;;;;;402.15;248.02;;;;;;;-144.77;100.00;59014.09;341805;29;1278;-90
2022/04/01 00:28:28;;;;;;;398.13;244.38;;;;;;;-144.77;100.00;59014.09;341494;29;1419;-90
2022/04/01 00:28:39;;;;;;;399.13;243.43;;;;;;;-144.77;100.00;59014.09;340951;29;1329;-90
2022/04/01 00:28:49;;;;;;;399.80;242.30;;;;;;;-144.77;100.00;59014.09;340257;29;1301;-90
2022/04/01 00:28:59;;;;;;;405.02;247.38;;;;;;;-144.77;100.00;59014.09;341488;29;1429;-90
2022/04/01 00:29:16;;;;;;;411.73;252.23;;;;;;;-144.77;100.00;59014.09;345483;28;1192;-90
2022/04/01 00:29:26;;;;;;;406.27;250.13;;;;;;;-144.77;100.00;59014.09;341409;29;1494;-90
2022/04/01 00:29:37;;;;;;;400.67;246.07;;;;;;;-144.77;100.00;59014.09;342128;29;1360;-90
2022/04/01 00:29:48;;;;;;;399.17;241.57;;;;;;;-144.77;100.00;59014.09;344086;28;1353;-90
2022/04/01 00:29:59;;;;;;;400.85;239.85;;;;;;;-144.77;100.00;59014.09;341974;28;1487;-90
2022/04/01 00:30:09;;;;;;;399.63;238.70;;;;;;;-144.77;100.00;59014.09;344007;28;1536;-90
2022/04/01 00:30:20;;;;;;;401.80;240.95;;;;;;;-144.77;100.00;59014.09;344398;28;1233;-90
2022/04/01 00:30:33;;;;;;;404.77;244.77;;;;;;;-144.77;100.00;59014.09;341296;28;1330;-90
2022/04/01 00:30:44;;;;;;;398.67;232.98;;;;;;;-144.77;100.00;59014.09;344139;28;864;-90
2022/04/01 00:30:57;;;;;;;400.23;235.27;;;;;;;-144.77;100.00;59014.09;343140;28;1201;-90
2022/04/01 00:31:09;;;;;;;402.00;238.45;;;;;;;-144.77;100.00;59014.09;339012;29;1328;-90
2022/04/01 00:31:20;;;;;;;400.45;238.30;;;;;;;-144.77;100.00;59014.09;344296;28;1297;-90
2022/04/01 00:31:30;;;;;;;402.53;242.93;;;;;;;-144.77;100.00;59014.09;342914;28;1423;-90
2022/04/01 00:31:58;;;;;;;402.35;243.52;;;;;;;-144.77;100.00;59014.09;341479;29;1423;-90
2022/04/01 00:32:08;;;;;;;395.10;237.95;;;;;;;-144.77;100.00;59014.09;342734;28;948;-90
2022/04/01 00:32:21;;;;;;;399.87;246.30;;;;;;;-144.77;100.00;59014.09;341923;29;1245;-90
2022/04/01 00:32:31;;;;;;;401.25;244.73;;;;;;;-144.77;100.00;59014.09;342875;28;1429;-90
2022/04/01 00:32:42;;;;;;;401.10;240.83;;;;;;;-144.77;100.00;59014.09;345084;28;1185;-90
2022/04/01 00:32:52;;;;;;;402.00;241.02;;;;;;;-144.77;100.00;59014.09;344166;28;1344;-90
2022/04/01 00:33:05;;;;;;;405.13;243.10;;;;;;;-144.77;100.00;59014.09;342737;29;1267;-90
2022/04/01 00:33:16;;;;;;;405.25;244.68;;;;;;;-144.77;100.00;59014.09;342658;28;1826;-90
2022/04/01 00:33:27;;;;;;;403.80;245.15;;;;;;;-144.77;100.00;59014.09;344329;28;1543;-90
2022/04/01 00:33:37;;;;;;;404.98;241.88;;;;;;;-144.77;100.00;59014.09;342789;28;1289;-90
2022/04/01 00:34:15;;;;;;;405.58;241.07;;;;;;;-144.77;100.00;59014.09;343026;28;1279;-90
2022/04/01 00:34:18;;;;;;;403.55;242.60;;;;;;;-144.77;100.00;59014.09;342685;28;1243;-90
2022/04/01 00:34:29;;;;;;;400.95;245.57;;;;;;;-144.77;100.00;59014.09;342434;29;1312;-90
2022/04/01 00:34:40;;;;;;;400.77;243.13;;;;;;;-144.77;100.00;59014.09;341386;29;1344;-90
2022/04/01 00:34:51;;;;;;;400.50;240.67;;;;;;;-144.77;100.00;59014.09;342883;28;923;-90
2022/04/01 00:35:02;;;;;;;400.92;234.40;;;;;;;-144.77;100.00;59014.09;343176;28;1732;-90
2022/04/01 00:35:12;;;;;;;400.75;237.63;;;;;;;-144.77;100.00;59014.09;344584;28;1649;-90
2022/04/01 00:35:22;;;;;;;402.02;239.57;;;;;;;-144.77;100.00;59014.09;346148;28;1453;-90
2022/04/01 00:35:34;;;;;;;403.70;243.63;;;;;;;-144.77;100.00;59014.09;344485;28;1341;-90
2022/04/01 00:35:44;;;;;;;403.56;240.62;;;;;;;-144.77;100.00;59014.09;343229;28;1355;-90
2022/04/01 00:35:54;;;;;;;405.27;242.23;;;;;;;-144.77;100.00;59014.09;341345;29;1344;-90
2022/04/01 00:36:05;;;;;;;405.03;243.23;;;;;;;-144.77;100.00;59014.09;344414;28;1315;-90
2022/04/01 00:36:15;;;;;;;405.25;243.85;;;;;;;-144.77;100.00;59014.09;342618;28;1219;-90
2022/04/01 00:36:26;;;;;;;402.97;242.70;;;;;;;-144.77;100.00;59014.09;344752;28;1238;-90
2022/04/01 00:36:36;;;;;;;399.90;239.05;;;;;;;-144.77;100.00;59014.09;345623;28;1341;-90
2022/04/01 00:36:49;;;;;;;398.30;238.70;;;;;;;-144.77;100.00;59014.09;344183;28;1188;-90
2022/04/01 00:37:00;;;;;;;401.25;243.90;;;;;;;-144.77;100.00;59014.09;342264;29;1293;-89
2022/04/01 00:37:11;;;;;;;404.20;248.20;;;;;;;-144.77;100.00;59014.09;339999;29;1344;-89
2022/04/01 00:37:21;;;;;;;403.50;249.23;;;;;;;-144.77;100.00;59014.09;341626;29;1291;-90
2022/04/01 00:37:33;;;;;;;401.00;245.73;;;;;;;-144.77;100.00;59014.09;340135;29;1323;-90
2022/04/01 00:37:43;;;;;;;400.30;245.25;;;;;;;-144.77;100.00;59014.09;340619;29;1421;-90
2022/04/01 00:37:54;;;;;;;402.00;246.77;;;;;;;-144.77;100.00;59014.09;341799;29;1237;-90
2022/04/01 00:38:04;;;;;;;405.73;250.37;;;;;;;-144.77;100.00;59014.09;341060;29;1475;-90
2022/04/01 00:38:14;;;;;;;405.70;247.85;;;;;;;-144.77;100.00;59014.09;341446;29;1243;-90
2022/04/01 00:38:25;;;;;;;404.90;250.40;;;;;;;-144.77;100.00;59014.09;340211;29;885;-90
2022/04/01 00:38:35;;;;;;;404.57;246.60;;;;;;;-144.77;100.00;59014.09;341522;29;1247;-90
2022/04/01 00:38:46;;;;;;;405.95;244.98;;;;;;;-144.77;100.00;59014.09;341826;28;1397;-90
2022/04/01 00:38:56;;;;;;;406.67;244.87;;;;;;;-144.77;100.00;59014.09;341615;28;1265;-90
2022/04/01 00:39:06;;;;;;;402.45;247.73;;;;;;;-144.77;100.00;59014.09;343549;28;1262;-90
2022/04/01 00:39:18;;;;;;;401.40;248.90;;;;;;;-144.77;100.00;59014.09;345559;28;1236;-90
2022/04/01 00:39:30;;;;;;;400.75;246.48;;;;;;;-144.77;100.00;59014.09;345339;28;1906;-90
2022/04/01 00:39:40;;;;;;;400.45;247.05;;;;;;;-144.77;100.00;59014.09;344691;28;1619;-90
2022/04/01 00:39:51;;;;;;;402.17;249.57;;;;;;;-144.77;100.00;59014.09;346093;28;1465;-89
2022/04/01 00:40:01;;;;;;;402.50;250.93;;;;;;;-144.77;100.00;59014.09;342723;28;1253;-90
2022/04/01 00:40:12;;;;;;;404.00;255.77;;;;;;;-144.77;100.00;59014.09;342798;28;1306;-90
2022/04/01 00:40:23;;;;;;;407.13;256.85;;;;;;;-144.77;100.00;59014.09;342212;29;1412;-90
2022/04/01 00:40:35;;;;;;;408.10;251.30;;;;;;;-144.77;100.00;59014.09;342992;28;1247;-90
2022/04/01 00:40:46;;;;;;;405.73;246.75;;;;;;;-144.77;100.00;59014.09;342679;29;1311;-90
2022/04/01 00:40:58;;;;;;;400.83;252.23;;;;;;;-144.77;100.00;59014.09;344507;28;1315;-90
2022/04/01 00:41:08;;;;;;;400.65;250.25;;;;;;;-144.77;100.00;59014.09;342813;28;1510;-90
2022/04/01 00:41:19;;;;;;;399.70;245.65;;;;;;;-144.77;100.00;59014.09;341627;29;1327;-90
2022/04/01 00:41:29;;;;;;;400.87;243.40;;;;;;;-144.77;100.00;59014.09;340213;29;1256;-89
2022/04/01 00:41:40;;;;;;;401.40;248.80;;;;;;;-144.77;100.00;59014.09;341377;29;1210;-89
2022/04/01 00:41:51;;;;;;;405.17;252.00;;;;;;;-144.77;100.00;59014.09;344085;28;1398;-90
2022/04/01 00:42:02;;;;;;;403.23;249.87;;;;;;;-144.77;100.00;59014.09;342833;28;1246;-90
2022/04/01 00:42:12;;;;;;;400.58;243.50;;;;;;;-144.77;100.00;59014.09;343365;28;1241;-90
2022/04/01 00:42:23;;;;;;;400.02;243.32;;;;;;;-144.77;100.00;59014.09;342799;28;1231;-90
2022/04/01 00:42:33;;;;;;;402.58;245.52;;;;;;;-144.77;100.00;59014.09;341240;29;1299;-90
2022/04/01 00:42:45;;;;;;;404.03;249.40;;;;;;;-144.77;100.00;59014.09;341441;29;1376;-90
2022/04/01 00:42:55;;;;;;;403.80;253.02;;;;;;;-144.77;100.00;59014.09;342714;28;1506;-90
2022/04/01 00:43:06;;;;;;;404.13;252.90;;;;;;;-144.77;100.00;59014.09;343722;28;1253;-90
2022/04/01 00:43:25;;;;;;;399.70;249.80;;;;;;;-144.77;100.00;59014.09;339313;29;1258;-89
2022/04/01 00:43:36;;;;;;;395.55;240.27;;;;;;;-144.77;100.00;59014.09;341757;29;1319;-90
2022/04/01 00:43:46;;;;;;;400.92;240.90;;;;;;;-144.77;100.00;59014.09;342873;28;1299;-90
2022/04/01 00:44:15;;;;;;;403.90;240.60;;;;;;;-144.77;100.00;59014.09;340683;29;794;-90
2022/04/01 00:44:26;;;;;;;402.95;242.73;;;;;;;-144.77;100.00;59014.09;339973;29;1328;-90
2022/04/01 00:44:37;;;;;;;403.40;238.10;;;;;;;-144.77;100.00;59014.09;340399;29;1647;-90
2022/04/01 00:44:48;;;;;;;403.60;242.10;;;;;;;-144.77;100.00;59014.09;344781;28;1489;-90
2022/04/01 00:44:58;;;;;;;400.70;240.40;;;;;;;-144.77;100.00;59014.09;344110;28;1281;-90
2022/04/01 00:45:10;;;;;;;399.15;239.10;;;;;;;-144.77;100.00;59014.09;341423;28;1221;-90
2022/04/01 00:45:20;;;;;;;399.58;239.25;;;;;;;-144.77;100.00;59014.09;341310;29;1285;-90
2022/04/01 00:45:31;;;;;;;401.80;239.40;;;;;;;-144.77;100.00;59014.09;342781;28;1209;-90
2022/04/01 00:45:42;;;;;;;404.70;240.13;;;;;;;-144.77;100.00;59014.09;342379;29;897;-90
2022/04/01 00:45:53;;;;;;;403.73;241.43;;;;;;;-144.77;100.00;59014.09;342190;29;1401;-90
2022/04/01 00:46:03;;;;;;;402.58;238.68;;;;;;;-144.77;100.00;59014.09;343649;28;1296;-90
2022/04/01 00:46:15;;;;;;;404.73;240.87;;;;;;;-144.77;100.00;59014.09;340581;29;1479;-90
2022/04/01 00:46:25;;;;;;;403.10;239.32;;;;;;;-144.77;100.00;59014.09;344079;28;1332;-90
2022/04/01 00:46:39;;;;;;;402.13;239.65;;;;;;;-144.77;100.00;59014.09;345607;28;1248;-89
2022/04/01 00:46:55;;;;;;;398.17;235.35;;;;;;;-144.77;100.00;59014.09;344655;28;1408;-89
2022/04/01 00:47:07;;;;;;;397.33;237.02;;;;;;;-144.77;100.00;59014.09;345401;28;1292;-89
2022/04/01 00:47:18;;;;;;;396.35;237.98;;;;;;;-144.77;100.00;59014.09;342958;28;1268;-89
2022/04/01 00:47:28;;;;;;;398.30;240.45;;;;;;;-144.77;100.00;59014.09;340161;29;1346;-90
2022/04/01 00:47:39;;;;;;;405.00;247.33;;;;;;;-144.77;100.00;59014.09;344083;28;1321;-90
2022/04/01 00:47:49;;;;;;;406.15;250.30;;;;;;;-144.77;100.00;59014.09;344134;28;1216;-90
2022/04/01 00:48:02;;;;;;;407.27;251.80;;;;;;;-144.77;100.00;59014.09;342699;28;1307;-90
2022/04/01 00:48:12;;;;;;;403.17;245.35;;;;;;;-144.77;100.00;59014.09;342620;28;1399;-90
2022/04/01 00:48:24;;;;;;;401.23;245.45;;;;;;;-144.77;100.00;59014.09;344895;28;1233;-90
2022/04/01 00:48:34;;;;;;;399.73;241.57;;;;;;;-144.77;100.00;59014.09;344091;28;1370;-90
2022/04/01 00:48:45;;;;;;;398.38;244.35;;;;;;;-144.77;100.00;59014.09;343144;28;1079;-90
2022/04/01 00:48:55;;;;;;;401.50;248.07;;;;;;;-144.77;100.00;59014.09;346070;28;1348;-90